createdAt,value
2018-07-09T00:02:20.941Z,3.77
2018-07-09T00:04:49.403Z,3.30
2018-07-09T00:07:17.970Z,3.23
2018-07-09T00:09:46.416Z,3.00
2018-07-09T00:12:14.881Z,3.30
2018-07-09T00:14:43.305Z,2.80
2018-07-09T00:17:11.777Z,2.70
2018-07-09T00:19:40.225Z,3.60
2018-07-09T00:22:08.750Z,2.93
2018-07-09T00:24:37.509Z,3.30
2018-07-09T00:27:05.956Z,3.10
2018-07-09T00:29:34.460Z,3.10
2018-07-09T00:32:02.898Z,2.93
2018-07-09T00:34:31.433Z,3.80
2018-07-09T00:36:59.872Z,3.90
2018-07-09T00:39:28.309Z,4.03
2018-07-09T00:41:56.822Z,3.63
2018-07-09T00:44:25.936Z,3.20
2018-07-09T00:46:54.472Z,2.60
2018-07-09T00:49:22.938Z,3.03
2018-07-09T00:51:51.403Z,3.47
2018-07-09T00:54:19.906Z,3.10
2018-07-09T00:56:48.450Z,2.80
2018-07-09T00:59:16.929Z,3.17
2018-07-09T01:01:45.413Z,3.70
2018-07-09T01:04:13.860Z,3.03
2018-07-09T01:06:42.381Z,4.17
2018-07-09T01:09:10.801Z,3.33
2018-07-09T01:11:44.319Z,3.03
2018-07-09T01:14:12.755Z,3.10
2018-07-09T01:16:41.323Z,2.87
2018-07-09T01:19:09.754Z,3.67
2018-07-09T01:21:38.252Z,3.40
2018-07-09T01:24:06.769Z,3.63
2018-07-09T01:26:35.353Z,3.13
2018-07-09T01:29:03.805Z,4.37
2018-07-09T01:31:32.278Z,3.07
2018-07-09T01:34:00.405Z,3.43
2018-07-09T01:36:28.848Z,2.97
2018-07-09T01:38:57.309Z,3.07
2018-07-09T01:41:25.730Z,3.70
2018-07-09T01:43:54.200Z,3.47
2018-07-09T01:46:23.149Z,3.97
2018-07-09T01:48:51.573Z,2.70
2018-07-09T01:51:20.026Z,3.60
2018-07-09T01:53:48.466Z,3.57
2018-07-09T01:56:16.924Z,3.60
2018-07-09T01:58:45.380Z,3.23
2018-07-09T02:01:13.846Z,3.80
2018-07-09T02:03:42.264Z,2.57
2018-07-09T02:06:10.711Z,3.20
2018-07-09T02:08:39.349Z,3.77
2018-07-09T02:11:07.774Z,3.73
2018-07-09T02:13:36.355Z,3.97
2018-07-09T02:16:04.803Z,3.80
2018-07-09T02:18:33.478Z,4.40
2018-07-09T02:21:01.997Z,3.10
2018-07-09T02:23:30.480Z,3.40
2018-07-09T02:25:58.921Z,3.60
2018-07-09T02:28:27.436Z,3.80
2018-07-09T02:30:55.861Z,3.40
2018-07-09T02:33:24.292Z,3.60
2018-07-09T02:35:52.733Z,3.33
2018-07-09T02:38:21.205Z,3.77
2018-07-09T02:40:49.657Z,3.70
2018-07-09T02:43:18.152Z,3.67
2018-07-09T02:45:46.600Z,4.03
2018-07-09T02:48:15.037Z,3.30
2018-07-09T02:50:43.537Z,3.87
2018-07-09T02:53:11.988Z,4.10
2018-07-09T02:55:40.441Z,3.70
2018-07-09T02:58:08.900Z,4.50
2018-07-09T03:00:37.373Z,3.50
2018-07-09T03:03:06.382Z,3.57
2018-07-09T03:05:35.083Z,3.57
2018-07-09T03:08:03.538Z,3.60
2018-07-09T03:10:31.961Z,4.00
2018-07-09T03:13:00.440Z,4.10
2018-07-09T03:15:28.873Z,4.33
2018-07-09T03:17:57.348Z,4.13
2018-07-09T03:20:25.825Z,3.90
2018-07-09T03:22:54.314Z,4.73
2018-07-09T03:25:22.753Z,3.87
2018-07-09T03:27:51.189Z,4.07
2018-07-09T03:30:19.653Z,4.50
2018-07-09T03:32:48.076Z,4.20
2018-07-09T03:35:16.518Z,5.90
2018-07-09T03:37:44.951Z,4.43
2018-07-09T03:40:13.440Z,4.47
2018-07-09T03:42:41.880Z,4.20
2018-07-09T03:45:10.318Z,4.17
2018-07-09T03:47:38.748Z,4.47
2018-07-09T03:50:07.289Z,4.67
2018-07-09T03:52:35.728Z,3.77
2018-07-09T03:55:04.263Z,4.63
2018-07-09T03:57:32.720Z,4.60
2018-07-09T04:00:01.187Z,4.37
2018-07-09T04:02:29.629Z,4.87
2018-07-09T04:04:58.073Z,5.27
2018-07-09T04:07:26.493Z,4.90
2018-07-09T04:09:54.953Z,4.47
2018-07-09T04:12:23.396Z,4.90
2018-07-09T04:14:51.857Z,5.03
2018-07-09T04:17:20.300Z,5.10
2018-07-09T04:19:48.740Z,5.07
2018-07-09T04:22:17.179Z,4.77
2018-07-09T04:24:45.614Z,6.00
2018-07-09T04:27:14.041Z,4.53
2018-07-09T04:29:42.474Z,5.37
2018-07-09T04:32:10.944Z,5.53
2018-07-09T04:34:39.356Z,4.97
2018-07-09T04:37:07.808Z,5.60
2018-07-09T04:39:36.241Z,5.70
2018-07-09T04:42:04.810Z,5.40
2018-07-09T04:44:33.233Z,7.30
2018-07-09T04:47:01.673Z,5.43
2018-07-09T04:49:30.136Z,6.53
2018-07-09T04:51:58.549Z,6.40
2018-07-09T04:54:26.993Z,6.30
2018-07-09T04:56:55.452Z,6.87
2018-07-09T04:59:23.897Z,5.67
2018-07-09T05:01:52.319Z,6.30
2018-07-09T05:04:20.756Z,5.57
2018-07-09T05:06:49.189Z,6.10
2018-07-09T05:09:17.677Z,6.30
2018-07-09T05:11:46.121Z,5.63
2018-07-09T05:14:14.562Z,5.50
2018-07-09T05:16:43.040Z,5.50
2018-07-09T05:19:11.465Z,5.90
2018-07-09T05:21:39.907Z,5.47
2018-07-09T05:24:08.345Z,5.80
2018-07-09T05:26:36.850Z,5.50
2018-07-09T05:29:05.510Z,5.93
2018-07-09T05:31:33.984Z,6.70
2018-07-09T05:34:02.477Z,5.73
2018-07-09T05:36:30.949Z,4.17
2018-07-09T05:38:59.530Z,4.73
2018-07-09T05:41:28.030Z,4.37
2018-07-09T05:43:56.496Z,4.00
2018-07-09T05:46:24.995Z,4.43
2018-07-09T05:48:53.984Z,4.80
2018-07-09T05:51:22.416Z,4.07
2018-07-09T05:53:50.878Z,4.20
2018-07-09T05:56:19.041Z,4.10
2018-07-09T05:58:47.522Z,4.13
2018-07-09T06:01:16.019Z,4.07
2018-07-09T06:03:44.482Z,4.10
2018-07-09T06:06:13.112Z,3.10
2018-07-09T06:08:41.590Z,3.77
2018-07-09T06:11:10.136Z,3.23
2018-07-09T06:13:38.672Z,3.20
2018-07-09T06:16:07.128Z,2.80
2018-07-09T06:18:35.597Z,3.20
2018-07-09T06:21:04.149Z,3.00
2018-07-09T06:23:32.625Z,3.00
2018-07-09T06:26:01.090Z,2.57
2018-07-09T06:28:29.594Z,3.17
2018-07-09T06:30:58.034Z,3.37
2018-07-09T06:33:26.740Z,2.50
2018-07-09T06:35:55.276Z,2.00
2018-07-09T06:38:23.797Z,2.80
2018-07-09T06:40:52.291Z,3.37
2018-07-09T06:43:20.742Z,2.40
2018-07-09T06:45:49.213Z,3.00
2018-07-09T06:48:17.736Z,3.33
2018-07-09T06:50:46.258Z,3.00
2018-07-09T06:53:14.746Z,2.63
2018-07-09T06:55:43.777Z,3.20
2018-07-09T06:58:12.242Z,2.30
2018-07-09T07:00:40.745Z,2.37
2018-07-09T07:03:09.202Z,2.27
2018-07-09T07:05:37.674Z,2.80
2018-07-09T07:08:06.229Z,2.40
2018-07-09T07:10:34.738Z,2.40
2018-07-09T07:13:03.279Z,2.97
2018-07-09T07:15:31.777Z,3.13
2018-07-09T07:18:00.264Z,3.43
2018-07-09T07:20:28.725Z,3.00
2018-07-09T07:22:57.232Z,2.40
2018-07-09T07:25:25.761Z,3.07
2018-07-09T07:27:54.258Z,3.20
2018-07-09T07:30:22.701Z,2.50
2018-07-09T07:32:51.257Z,2.90
2018-07-09T07:35:19.837Z,3.43
2018-07-09T07:37:48.326Z,2.53
2018-07-09T07:40:16.813Z,3.17
2018-07-09T07:42:45.334Z,2.90
2018-07-09T07:45:13.786Z,3.50
2018-07-09T07:47:42.277Z,2.67
2018-07-09T07:50:10.804Z,2.03
2018-07-09T07:52:39.287Z,2.00
2018-07-09T07:55:07.759Z,2.13
2018-07-09T07:57:36.256Z,2.50
2018-07-09T08:00:05.085Z,4.00
2018-07-09T08:02:33.584Z,2.60
2018-07-09T08:05:02.026Z,2.37
2018-07-09T08:07:30.196Z,1.87
2018-07-09T08:09:58.675Z,2.23
2018-07-09T08:14:55.349Z,2.33
2018-07-09T08:17:24.013Z,1.93
2018-07-09T08:19:52.126Z,1.50
2018-07-09T08:22:20.690Z,2.07
2018-07-09T08:24:49.224Z,1.70
2018-07-09T08:27:17.665Z,2.10
2018-07-09T08:29:46.154Z,2.07
2018-07-09T08:32:14.647Z,2.10
2018-07-09T08:34:43.133Z,2.63
2018-07-09T08:37:11.784Z,2.20
2018-07-09T08:39:40.309Z,2.03
2018-07-09T08:42:08.828Z,2.10
2018-07-09T08:44:39.896Z,2.40
2018-07-09T08:47:08.345Z,2.23
2018-07-09T08:49:43.352Z,2.53
2018-07-09T08:52:11.806Z,2.47
2018-07-09T08:54:40.334Z,2.50
2018-07-09T08:57:08.845Z,2.60
2018-07-09T08:59:37.336Z,2.30
2018-07-09T09:02:05.802Z,2.13
2018-07-09T09:04:34.281Z,2.40
2018-07-09T09:07:02.776Z,2.60
2018-07-09T09:09:31.229Z,2.43
2018-07-09T09:11:59.710Z,2.63
2018-07-09T09:14:28.154Z,2.80
2018-07-09T09:16:56.657Z,2.77
2018-07-09T09:19:25.160Z,2.90
2018-07-09T09:21:53.845Z,2.63
2018-07-09T09:24:22.325Z,2.33
2018-07-09T09:26:51.092Z,2.50
2018-07-09T09:29:19.564Z,3.07
2018-07-09T09:31:48.697Z,2.47
2018-07-09T09:34:17.153Z,2.33
2018-07-09T09:36:45.742Z,2.37
2018-07-09T09:39:14.206Z,2.67
2018-07-09T09:41:42.691Z,2.53
2018-07-09T09:44:11.245Z,3.20
2018-07-09T09:46:40.126Z,2.57
2018-07-09T09:49:08.604Z,2.17
2018-07-09T09:51:37.384Z,2.50
2018-07-09T09:54:06.065Z,2.40
2018-07-09T09:56:34.592Z,2.10
2018-07-09T09:59:03.057Z,2.60
2018-07-09T10:01:31.538Z,2.40
2018-07-09T10:04:00.033Z,2.70
2018-07-09T10:06:28.596Z,2.10
2018-07-09T10:08:57.021Z,2.73
2018-07-09T10:11:25.497Z,2.43
2018-07-09T10:13:53.990Z,1.90
2018-07-09T10:16:22.433Z,2.67
2018-07-09T10:18:50.920Z,2.13
2018-07-09T10:21:19.403Z,1.93
2018-07-09T10:23:47.896Z,2.60
2018-07-09T10:26:16.345Z,2.40
2018-07-09T10:28:44.802Z,2.20
2018-07-09T10:31:13.397Z,4.20
2018-07-09T10:33:41.862Z,3.07
2018-07-09T10:36:10.316Z,2.50
2018-07-09T10:38:38.831Z,3.23
2018-07-09T10:41:07.895Z,2.10
2018-07-09T10:43:36.481Z,3.20
2018-07-09T10:46:04.970Z,2.90
2018-07-09T10:48:33.465Z,2.80
2018-07-09T10:51:01.969Z,2.97
2018-07-09T10:53:30.462Z,2.80
2018-07-09T10:55:58.937Z,3.53
2018-07-09T10:58:27.384Z,2.67
2018-07-09T11:00:55.889Z,2.97
2018-07-09T11:03:24.359Z,3.60
2018-07-09T11:05:52.842Z,3.67
2018-07-09T11:08:21.356Z,3.20
2018-07-09T11:10:49.850Z,2.50
2018-07-09T11:13:18.357Z,2.60
2018-07-09T11:15:46.825Z,2.80
2018-07-09T11:18:15.342Z,2.80
2018-07-09T11:20:43.830Z,2.80
2018-07-09T11:23:12.306Z,3.07
2018-07-09T11:25:40.825Z,2.90
2018-07-09T11:28:09.290Z,2.77
2018-07-09T11:30:37.756Z,2.20
2018-07-09T11:33:06.234Z,3.20
2018-07-09T11:35:34.722Z,2.77
2018-07-09T11:38:03.231Z,3.17
2018-07-09T11:40:31.700Z,2.60
2018-07-09T11:43:00.193Z,2.87
2018-07-09T11:45:28.719Z,2.60
2018-07-09T11:47:57.197Z,3.23
2018-07-09T11:50:25.721Z,2.40
2018-07-09T11:52:54.416Z,2.80
2018-07-09T11:55:22.946Z,3.57
2018-07-09T11:57:51.443Z,3.10
2018-07-09T12:00:19.925Z,3.33
2018-07-09T12:02:48.440Z,3.53
2018-07-09T12:05:16.914Z,3.00
2018-07-09T12:07:45.354Z,2.87
2018-07-09T12:10:13.917Z,3.40
2018-07-09T12:12:42.454Z,2.53
2018-07-09T12:15:10.968Z,7.33
2018-07-09T12:17:39.417Z,4.20
2018-07-09T12:20:08.072Z,2.87
2018-07-09T12:22:36.589Z,3.27
2018-07-09T12:25:05.139Z,2.70
2018-07-09T12:27:33.605Z,2.90
2018-07-09T12:30:02.175Z,2.93
2018-07-09T12:32:30.646Z,2.80
2018-07-09T12:34:59.153Z,3.43
2018-07-09T12:37:27.641Z,2.80
2018-07-09T12:39:56.132Z,2.97
2018-07-09T12:42:24.614Z,3.90
2018-07-09T12:44:53.133Z,3.60
2018-07-09T12:47:21.603Z,3.00
2018-07-09T12:49:50.252Z,3.50
2018-07-09T12:52:18.325Z,4.93
2018-07-09T12:54:46.783Z,4.20
2018-07-09T12:57:15.275Z,3.73
2018-07-09T12:59:43.717Z,3.13
2018-07-09T13:02:12.211Z,4.80
2018-07-09T13:04:40.760Z,3.93
2018-07-09T13:07:09.319Z,4.40
2018-07-09T13:09:37.766Z,6.07
2018-07-09T13:12:06.504Z,3.60
2018-07-09T13:14:35.013Z,4.57
2018-07-09T13:17:03.572Z,4.30
2018-07-09T13:19:32.089Z,4.30
2018-07-09T13:22:00.596Z,4.00
2018-07-09T13:24:29.153Z,3.83
2018-07-09T13:26:57.651Z,4.23
2018-07-09T13:29:26.229Z,4.20
2018-07-09T13:31:54.869Z,4.40
2018-07-09T13:34:23.453Z,4.90
2018-07-09T13:36:51.994Z,3.97
2018-07-09T13:39:21.757Z,4.20
2018-07-09T13:41:50.437Z,3.50
2018-07-09T13:44:19.125Z,4.70
2018-07-09T13:46:48.246Z,4.00
2018-07-09T13:49:17.393Z,4.30
2018-07-09T13:51:46.014Z,6.13
2018-07-09T13:54:14.729Z,3.87
2018-07-09T13:56:43.590Z,3.80
2018-07-09T13:59:12.433Z,3.30
2018-07-09T14:01:41.076Z,3.00
2018-07-09T14:04:09.757Z,3.40
2018-07-09T14:06:38.708Z,3.50
2018-07-09T14:09:07.339Z,3.50
2018-07-09T14:11:35.905Z,3.20
2018-07-09T14:14:06.192Z,3.40
2018-07-09T14:16:34.817Z,3.20
2018-07-09T14:19:13.249Z,3.03
2018-07-09T14:21:42.093Z,2.87
2018-07-09T14:24:10.686Z,3.00
2018-07-09T14:26:39.394Z,2.53
2018-07-09T14:29:08.061Z,2.73
2018-07-09T14:31:36.734Z,3.63
2018-07-09T14:34:05.755Z,3.00
2018-07-09T14:36:34.610Z,2.10
2018-07-09T14:39:04.935Z,3.27
2018-07-09T14:41:33.628Z,2.27
2018-07-09T14:44:02.226Z,2.80
2018-07-09T14:46:30.936Z,2.93
2018-07-09T14:48:59.761Z,3.23
2018-07-09T14:51:28.229Z,3.20
2018-07-09T14:53:56.721Z,3.17
2018-07-09T14:56:25.218Z,2.50
2018-07-09T14:58:53.731Z,2.90
2018-07-09T15:01:22.262Z,3.30
2018-07-09T15:03:50.757Z,4.80
2018-07-09T15:06:19.278Z,3.47
2018-07-09T15:08:47.746Z,3.33
2018-07-09T15:11:16.265Z,3.70
2018-07-09T15:13:44.777Z,3.50
2018-07-09T15:16:13.238Z,3.67
2018-07-09T15:18:41.797Z,4.00
2018-07-09T15:21:10.380Z,6.33
2018-07-09T15:23:38.811Z,3.50
2018-07-09T15:26:07.369Z,5.07
2018-07-09T15:28:35.816Z,4.57
2018-07-09T15:31:04.337Z,3.50
2018-07-09T15:33:32.838Z,4.77
2018-07-09T15:36:01.323Z,4.47
2018-07-09T15:38:29.480Z,4.40
2018-07-09T15:40:57.952Z,3.87
2018-07-09T15:44:04.134Z,4.80
2018-07-09T15:46:32.410Z,3.80
2018-07-09T15:49:01.506Z,3.07
2018-07-09T15:51:29.988Z,5.80
2018-07-09T15:53:58.465Z,4.07
2018-07-09T15:56:28.281Z,3.50
2018-07-09T15:58:57.349Z,3.87
2018-07-09T16:01:25.880Z,5.17
2018-07-09T16:03:54.480Z,3.87
2018-07-09T16:06:23.415Z,4.33
2018-07-09T16:08:52.192Z,3.90
2018-07-09T16:11:20.656Z,3.27
2018-07-09T16:13:50.013Z,4.40
2018-07-09T16:16:19.039Z,3.87
2018-07-09T16:18:47.526Z,3.37
2018-07-09T16:21:16.100Z,3.30
2018-07-09T16:23:44.585Z,3.93
2018-07-09T16:26:13.162Z,3.37
2018-07-09T16:28:41.645Z,3.70
2018-07-09T16:31:10.093Z,2.87
2018-07-09T16:33:39.014Z,3.10
2018-07-09T16:36:07.542Z,2.50
2018-07-09T16:38:36.044Z,3.30
2018-07-09T16:41:04.501Z,2.33
2018-07-09T16:43:33.021Z,2.70
2018-07-09T16:46:01.465Z,2.60
2018-07-09T16:48:29.944Z,2.70
2018-07-09T16:50:58.489Z,3.40
2018-07-09T16:53:27.010Z,2.60
2018-07-09T16:55:55.544Z,2.70
2018-07-09T16:58:24.018Z,2.90
2018-07-09T17:00:52.534Z,3.53
2018-07-09T17:03:21.027Z,3.20
2018-07-09T17:05:49.522Z,2.60
2018-07-09T17:08:18.195Z,2.70
2018-07-09T17:10:46.785Z,2.90
2018-07-09T17:13:15.341Z,3.67
2018-07-09T17:15:43.945Z,1.83
2018-07-09T17:18:12.465Z,2.87
2018-07-09T17:20:40.983Z,2.47
2018-07-09T17:23:09.091Z,2.50
2018-07-09T17:25:37.663Z,2.70
2018-07-09T17:28:06.114Z,2.90
2018-07-09T17:30:34.634Z,1.93
2018-07-09T17:33:03.156Z,2.97
2018-07-09T17:35:31.618Z,2.53
2018-07-09T17:38:00.090Z,2.20
2018-07-09T17:40:28.740Z,3.17
2018-07-09T17:42:58.548Z,5.53
2018-07-09T17:45:27.052Z,2.40
2018-07-09T17:47:55.552Z,3.63
2018-07-09T17:50:24.070Z,2.60
2018-07-09T17:52:52.919Z,2.50
2018-07-09T17:55:21.554Z,1.80
2018-07-09T17:57:50.295Z,3.20
2018-07-09T18:00:18.861Z,2.37
2018-07-09T18:02:47.403Z,3.10
2018-07-09T18:05:15.931Z,2.93
2018-07-09T18:07:44.495Z,2.87
2018-07-09T18:10:13.052Z,2.73
2018-07-09T18:12:41.541Z,4.00
2018-07-09T18:15:10.023Z,4.50
2018-07-09T18:17:38.649Z,3.80
2018-07-09T18:20:07.203Z,4.80
2018-07-09T18:22:35.685Z,3.67
2018-07-09T18:25:04.385Z,2.57
2018-07-09T18:27:33.299Z,3.13
2018-07-09T18:30:01.738Z,3.70
2018-07-09T18:32:30.271Z,3.90
2018-07-09T18:34:58.736Z,3.33
2018-07-09T18:37:27.257Z,2.80
2018-07-09T18:39:55.765Z,3.60
2018-07-09T18:42:24.265Z,2.67
2018-07-09T18:44:52.478Z,2.10
2018-07-09T18:47:20.967Z,2.53
2018-07-09T18:49:49.454Z,2.60
2018-07-09T18:52:17.997Z,2.30
2018-07-09T18:54:46.498Z,2.30
2018-07-09T18:57:14.989Z,2.10
2018-07-09T18:59:43.555Z,2.53
2018-07-09T19:02:12.092Z,2.20
2018-07-09T19:04:40.602Z,2.70
2018-07-09T19:07:11.213Z,2.40
2018-07-09T19:09:40.281Z,2.30
2018-07-09T19:12:09.529Z,2.80
2018-07-09T19:14:45.948Z,2.60
2018-07-09T19:18:54.950Z,2.50
2018-07-09T19:21:36.713Z,2.97
2018-07-09T19:24:05.250Z,2.40
2018-07-09T19:26:32.516Z,3.27
2018-07-09T19:28:59.800Z,3.60
2018-07-09T19:31:27.180Z,3.40
2018-07-09T19:33:54.535Z,3.50
2018-07-09T19:36:21.935Z,3.83
2018-07-09T19:38:49.211Z,4.40
2018-07-09T19:41:16.528Z,3.30
2018-07-09T19:43:43.844Z,4.20
2018-07-09T19:46:11.152Z,4.07
2018-07-09T19:48:38.458Z,3.73
2018-07-09T19:51:05.763Z,3.77
2018-07-09T19:53:33.081Z,3.17
2018-07-09T19:56:00.392Z,3.10
2018-07-09T19:58:27.808Z,3.43
2018-07-09T20:00:55.110Z,3.23
2018-07-09T20:03:22.471Z,3.33
2018-07-09T20:05:49.787Z,3.57
2018-07-09T20:08:17.106Z,2.80
2018-07-09T20:10:49.753Z,3.77
2018-07-09T20:13:22.422Z,3.33
2018-07-09T20:15:55.051Z,4.00
2018-07-09T20:18:22.396Z,4.03
2018-07-09T20:20:49.743Z,3.83
2018-07-09T20:23:17.022Z,3.10
2018-07-09T20:25:44.334Z,3.43
2018-07-09T20:28:11.693Z,3.50
2018-07-09T20:30:39.004Z,3.87
2018-07-09T20:33:07.119Z,4.30
2018-07-09T20:35:34.421Z,3.77
2018-07-09T20:38:01.741Z,4.47
2018-07-09T20:40:29.181Z,4.60
2018-07-09T20:42:56.513Z,4.20
2018-07-09T20:45:23.840Z,5.23
2018-07-09T20:47:51.185Z,4.50
2018-07-09T20:50:18.493Z,5.27
2018-07-09T20:52:45.813Z,4.47
2018-07-09T20:55:13.109Z,4.60
2018-07-09T20:57:40.427Z,4.80
2018-07-09T21:00:07.727Z,4.57
2018-07-09T21:02:35.041Z,5.17
2018-07-09T21:05:02.358Z,6.10
2018-07-09T21:07:29.669Z,5.13
2018-07-09T21:09:56.969Z,6.17
2018-07-09T21:12:24.306Z,5.93
2018-07-09T21:14:51.618Z,5.00
2018-07-09T21:17:19.905Z,6.00
2018-07-09T21:19:47.233Z,5.03
2018-07-09T21:22:14.561Z,5.03
2018-07-09T21:24:41.871Z,5.47
2018-07-09T21:27:09.244Z,5.13
2018-07-09T21:29:36.541Z,5.60
2018-07-09T21:32:03.918Z,5.00
2018-07-09T21:34:31.229Z,5.50
2018-07-09T21:36:58.529Z,5.10
2018-07-09T21:39:25.912Z,5.17
2018-07-09T21:41:53.217Z,5.10
2018-07-09T21:44:20.522Z,6.40
2018-07-09T21:46:47.882Z,6.30
2018-07-09T21:49:15.192Z,5.80
2018-07-09T21:51:42.744Z,5.90
2018-07-09T21:54:10.062Z,5.90
2018-07-09T21:56:37.360Z,5.00
2018-07-09T21:59:04.675Z,5.37
2018-07-09T22:01:31.960Z,4.87
2018-07-09T22:03:59.274Z,4.80
2018-07-09T22:06:26.574Z,5.43
2018-07-09T22:08:53.869Z,5.07
2018-07-09T22:11:21.173Z,5.27
2018-07-09T22:13:48.499Z,4.50
2018-07-09T22:16:16.097Z,5.50
2018-07-09T22:18:43.447Z,4.20
2018-07-09T22:21:10.754Z,4.53
2018-07-09T22:23:38.082Z,5.30
2018-07-09T22:26:05.386Z,4.57
2018-07-09T22:28:32.948Z,4.20
2018-07-09T22:31:01.473Z,4.73
2018-07-09T22:33:29.992Z,4.60
2018-07-09T22:35:58.473Z,4.00
2018-07-09T22:38:26.937Z,3.87
2018-07-09T22:40:55.410Z,2.93
2018-07-09T22:43:35.225Z,4.00
2018-07-09T22:46:03.687Z,4.27
2018-07-09T22:48:32.205Z,3.20
2018-07-09T22:51:01.142Z,2.90
2018-07-09T22:53:29.609Z,3.33
2018-07-09T22:56:12.080Z,2.20
2018-07-09T22:58:41.612Z,2.87
2018-07-09T23:01:10.130Z,2.40
2018-07-09T23:03:38.615Z,1.83
2018-07-09T23:06:07.112Z,2.27
2018-07-09T23:08:35.617Z,2.50
2018-07-09T23:12:33.081Z,2.67
2018-07-09T23:18:19.964Z,2.00
2018-07-09T23:23:08.785Z,2.23
2018-07-09T23:25:36.102Z,2.70
2018-07-09T23:28:03.401Z,2.87
2018-07-09T23:30:30.977Z,2.13
2018-07-09T23:32:58.265Z,1.90
2018-07-09T23:35:25.584Z,2.27
2018-07-09T23:37:52.873Z,2.17
2018-07-09T23:40:20.194Z,3.00
2018-07-09T23:42:47.476Z,2.30
2018-07-09T23:45:14.815Z,1.97
2018-07-09T23:47:42.102Z,2.23
2018-07-09T23:50:09.454Z,2.40
2018-07-09T23:52:36.741Z,2.70
2018-07-09T23:55:04.053Z,2.37
2018-07-09T23:59:49.363Z,2.20
